Flight Track Log - Related Links

Times and Time Zones

All times are in EDT time to prevent confusion due to time zone crossing. See the ASQ5013 flight status page for this flight to view local times or setup timezone preferences in your user account.

Time Position Orientation Groundspeed Altitude Reporting Facility
EDT Latitude Longitude Course Direction KTS MPH feet Rate Location/Type
Wed 04:46:37 PM 37.0825 -76.5811 236° Southwest 250 288 2,500  Level Washington Center
Wed 04:47:31 PM 37.0381 -76.6378 226° Southwest 251 289 5,100 2,478 Climbing Washington Center
Wed 04:48:55 PM 36.9664 -76.7175 222° Southwest 267 307 8,200 2,208 Climbing Washington Center
Wed 04:49:55 PM 36.9094 -76.7842 223° Southwest 272 313 10,400 1,300 Climbing Washington Center
Wed 04:50:55 PM 36.8461 -76.8611 224° Southwest 293 337 10,800 750 Climbing Washington Center
Wed 04:51:55 PM 36.7703 -76.9453 222° Southwest 334 384 11,900 1,250 Climbing Washington Center
Wed 04:52:55 PM 36.7022 -77.0400 228° Southwest 362 417 13,300 1,400 Climbing Washington Center
Wed 04:53:55 PM 36.6508 -77.1506 240° Southwest 374 430 14,700 1,350 Climbing Washington Center
Wed 04:54:55 PM 36.5972 -77.2633 239° Southwest 379 436 16,000 700 Climbing Washington Center
Wed 04:55:55 PM 36.5433 -77.3808 240° Southwest 386 444 16,100 550 Climbing Washington Center
Wed 04:56:55 PM 36.4872 -77.5011 240° Southwest 396 456 17,100 1,100 Climbing Washington Center
Wed 04:57:55 PM 36.4311 -77.6211 240° Southwest 402 463 18,300 1,300 Climbing Washington Center
Wed 04:58:55 PM 36.3769 -77.7331 239° Southwest 397 457 19,700 1,200 Climbing Washington Center
Wed 04:59:55 PM 36.3225 -77.8503 240° Southwest 397 457 20,700 1,050 Climbing Washington Center
Wed 05:00:55 PM 36.2497 -77.9514 228° Southwest 397 457 21,800 800 Climbing Washington Center
Wed 05:01:55 PM 36.1564 -78.0308 215° Southwest 394 453 22,300 500 Climbing Washington Center
Wed 05:02:55 PM 36.0606 -78.1153 215° Southwest 415 478 22,800 500 Climbing Washington Center
Wed 05:03:55 PM 35.9628 -78.1992 215° Southwest 425 489 23,300 500 Climbing Washington Center
Wed 05:04:55 PM 35.8672 -78.2833 216° Southwest 430 495 23,800 500 Climbing Washington Center
Wed 05:05:55 PM 35.7672 -78.3669 214° Southwest 430 495 24,300 500 Climbing Washington Center
Wed 05:06:55 PM 35.6692 -78.4531 216° Southwest 430 495 24,800 500 Climbing Washington Center
Wed 05:07:55 PM 35.5753 -78.5314 214° Southwest 442 509 25,300 800 Climbing Washington Center
Wed 05:08:55 PM 35.4689 -78.6219 215° Southwest 442 509 26,400 850 Climbing Washington Center
Wed 05:09:55 PM 35.3814 -78.6975 215° Southwest 432 497 27,000 500 Climbing Washington Center
Wed 05:10:55 PM 35.2811 -78.7825 215° Southwest 437 503 27,400 450 Climbing Washington Center
Wed 05:11:55 PM 35.1828 -78.8650 214° Southwest 437 503 27,900 300 Climbing Washington Center
Wed 05:12:55 PM 35.0844 -78.9475 214° Southwest 431 496 28,000 50 Climbing Washington Center
Wed 05:13:55 PM 34.9797 -79.0369 215° Southwest 442 509 28,000  Level Washington Center
Wed 05:14:55 PM 34.8769 -79.1236 215° Southwest 453 521 28,000  Level Washington Center
Wed 05:15:55 PM 34.7722 -79.2128 215° Southwest 458 527 28,000  Level Washington Center
Wed 05:16:55 PM 34.6672 -79.2964 213° Southwest 458 527 28,000  Level Washington Center
Wed 05:18:40 PM 34.4842 -79.4492 215° Southwest 470 541 28,000  Level Jacksonville Center
Wed 05:19:40 PM 34.3800 -79.5364 215° Southwest 470 541 28,000  Level Jacksonville Center
Wed 05:20:40 PM 34.2758 -79.6208 214° Southwest 464 534 28,000  Level Jacksonville Center
Wed 05:21:40 PM 34.2103 -79.7514 239° Southwest 427 491 28,000  Level Jacksonville Center
Wed 05:22:40 PM 34.1722 -79.8908 252° West 425 489 28,000  Level Jacksonville Center
Wed 05:23:40 PM 34.1356 -80.0300 252° West 431 496 28,000 -33 Level Jacksonville Center
Wed 05:25:40 PM 34.0625 -80.3106 253° West 443 510 27,900  Descending Jacksonville Center
Wed 05:26:40 PM 34.0256 -80.4519 253° West 443 510 28,000 50 Climbing Jacksonville Center
Wed 05:27:40 PM 33.9867 -80.5933 252° West 443 510 28,000  Level Jacksonville Center
Wed 05:28:40 PM 33.9494 -80.7344 252° West 448 516 28,000  Level Jacksonville Center
Wed 05:29:40 PM 33.9081 -80.8756 251° West 448 516 28,000  Level Jacksonville Center
Wed 05:30:40 PM 33.8706 -81.0142 252° West 448 516 28,000  Level Jacksonville Center
Wed 05:31:40 PM 33.8286 -81.1525 250° West 443 510 28,000  Level Jacksonville Center
Wed 05:32:40 PM 33.7886 -81.2908 251° West 443 510 28,000  Level Jacksonville Center
Wed 05:33:40 PM 33.7486 -81.4289 251° West 443 510 28,000  Level Jacksonville Center
Wed 05:36:03 PM 33.6478 -81.7556 250° West 440 506 28,000  Level Atlanta Center
Wed 05:37:03 PM 33.6086 -81.8939 251° West 440 506 28,000  Level Atlanta Center
Wed 05:38:03 PM 33.5650 -82.0319 249° West 440 506 28,000 -400 Level Atlanta Center
Wed 05:39:03 PM 33.5233 -82.1725 250° West 440 506 27,200 -850 Descending Atlanta Center
Wed 05:40:03 PM 33.4814 -82.3053 249° West 460 529 26,300 -950 Descending Atlanta Center
Wed 05:41:03 PM 33.4436 -82.4406 252° West 454 522 25,300 -1,000 Descending Atlanta Center
Wed 05:42:03 PM 33.3975 -82.5833 249° West 454 522 24,300 -650 Descending Atlanta Center
Wed 05:43:03 PM 33.3531 -82.7308 250° West 443 510 24,000 -150 Descending Atlanta Center
Wed 05:44:03 PM 33.3147 -82.8531 249° West 436 502 24,000  Level Atlanta Center
Wed 05:45:03 PM 33.2681 -83.0053 250° West 444 511 24,000  Level Atlanta Center
Wed 05:46:03 PM 33.2275 -83.1422 251° West 449 517 24,000  Level Atlanta Center
Wed 05:47:03 PM 33.1825 -83.2819 249° West 449 517 24,000  Level Atlanta Center
Wed 05:48:03 PM 33.1394 -83.4161 249° West 449 517 24,000 -100 Level Atlanta Center
Wed 05:49:03 PM 33.0689 -83.5133 229° Southwest 407 468 23,800 -700 Descending Atlanta Center
Wed 05:50:03 PM 33.0064 -83.5706 218° Southwest 372 428 22,600 -1,850 Descending Atlanta Center
Wed 05:51:03 PM 32.9881 -83.6672 257° West 304 350 20,100 -2,650 Descending Atlanta Center
Wed 05:52:03 PM 33.0736 -83.7364 326° Northwest 258 297 17,300 -3,226 Descending Atlanta Center
Wed 05:52:49 PM 33.1667 -83.7833 337° Northwest 420 483 14,400 -1,868 Descending Atlanta TRACON
Wed 05:53:49 PM 33.2500 -83.8667 320° Northwest 402 463 14,000 -667 Descending Atlanta TRACON
Wed 05:54:55 PM 33.3333 -83.9833 311° West 407 468 13,000 -950 Descending Atlanta TRACON
Wed 05:55:49 PM 33.4000 -84.0833 309° West 407 468 12,100 -526 Descending Atlanta TRACON
Wed 05:56:49 PM 33.4667 -84.1833 309° West 367 422 12,000 -50 Descending Atlanta TRACON
Wed 05:57:49 PM 33.5167 -84.2667 306° West 293 337 12,000 -333 Level Atlanta TRACON
Wed 05:58:55 PM 33.5500 -84.3500 296° West 248 285 11,300 -952 Descending Atlanta TRACON
Wed 05:59:55 PM 33.5500 -84.4167 270° West 251 289 10,000 -1,400 Descending Atlanta TRACON
Wed 06:00:55 PM 33.5500 -84.5000 270° West 241 277 8,500 -1,800 Descending Atlanta TRACON
Wed 06:01:55 PM 33.5500 -84.5833 270° West 229 264 6,400 -1,500 Descending Atlanta TRACON
Wed 06:02:55 PM 33.5500 -84.6500 270° West 190 219 5,500 -1,100 Descending Atlanta TRACON
Wed 06:03:55 PM 33.6000 -84.6500 360° North 198 228 4,200 -1,240 Descending Atlanta TRACON
Wed 06:04:56 PM 33.6167 -84.6000 68° East 176 203 3,000 -756 Descending Atlanta TRACON
Wed 06:06:02 PM 33.6167 -84.5333 90° East 172 198 2,600 -571 Descending Atlanta TRACON
Wed 06:07:02 PM 33.6167 -84.4833 90° East 156 180 1,800 -800 Descending Atlanta TRACON
Wed 06:09:00 PM 33.6367 -84.4279 64° Northeast  Level Estimated
Wed 06:16:00 PM 33.6367 -84.4279 64° Northeast  Level Estimated

Login

Don't have an account? Register now (free) for customized features, flight alerts, and more!